sensor_id;sensor_type;location;lat;lon;timestamp;pressure;altitude;pressure_sealevel;temperature;humidity
8294;BME280;4185;41.506;24.938;2023-02-12T00:00:02;94293.50;;;-5.66;65.70
8294;BME280;4185;41.506;24.938;2023-02-12T00:02:29;94296.56;;;-5.64;65.40
8294;BME280;4185;41.506;24.938;2023-02-12T00:04:56;94301.47;;;-5.63;65.40
8294;BME280;4185;41.506;24.938;2023-02-12T00:07:22;94291.63;;;-5.66;65.29
8294;BME280;4185;41.506;24.938;2023-02-12T00:09:51;94301.06;;;-5.68;64.45
8294;BME280;4185;41.506;24.938;2023-02-12T00:12:17;94294.53;;;-5.78;65.11
8294;BME280;4185;41.506;24.938;2023-02-12T00:14:44;94290.91;;;-6.03;66.27
8294;BME280;4185;41.506;24.938;2023-02-12T00:17:11;94292.41;;;-6.05;66.11
8294;BME280;4185;41.506;24.938;2023-02-12T00:19:38;94287.13;;;-6.02;66.36
8294;BME280;4185;41.506;24.938;2023-02-12T00:22:04;94283.00;;;-5.99;66.13
8294;BME280;4185;41.506;24.938;2023-02-12T00:24:31;94278.41;;;-6.06;66.22
8294;BME280;4185;41.506;24.938;2023-02-12T00:26:59;94279.84;;;-6.12;66.21
8294;BME280;4185;41.506;24.938;2023-02-12T00:29:26;94288.09;;;-6.17;66.92
8294;BME280;4185;41.506;24.938;2023-02-12T00:31:53;94277.84;;;-6.22;67.18
8294;BME280;4185;41.506;24.938;2023-02-12T00:34:20;94282.75;;;-6.20;67.16
8294;BME280;4185;41.506;24.938;2023-02-12T00:36:46;94277.75;;;-6.29;67.43
8294;BME280;4185;41.506;24.938;2023-02-12T00:39:13;94285.41;;;-6.20;67.36
8294;BME280;4185;41.506;24.938;2023-02-12T00:41:40;94281.53;;;-6.30;67.08
8294;BME280;4185;41.506;24.938;2023-02-12T00:44:08;94281.59;;;-6.23;67.39
8294;BME280;4185;41.506;24.938;2023-02-12T00:46:35;94274.13;;;-6.17;66.87
8294;BME280;4185;41.506;24.938;2023-02-12T00:49:01;94273.91;;;-6.35;66.44
8294;BME280;4185;41.506;24.938;2023-02-12T00:51:28;94273.03;;;-6.46;67.08
8294;BME280;4185;41.506;24.938;2023-02-12T00:53:55;94271.81;;;-6.52;67.24
8294;BME280;4185;41.506;24.938;2023-02-12T00:56:22;94269.94;;;-6.52;67.71
8294;BME280;4185;41.506;24.938;2023-02-12T00:58:49;94266.94;;;-6.50;67.89
8294;BME280;4185;41.506;24.938;2023-02-12T01:01:17;94270.78;;;-6.44;67.71
8294;BME280;4185;41.506;24.938;2023-02-12T01:03:44;94263.72;;;-6.37;67.76
8294;BME280;4185;41.506;24.938;2023-02-12T01:06:10;94257.38;;;-6.29;67.25
8294;BME280;4185;41.506;24.938;2023-02-12T01:08:37;94247.56;;;-6.28;67.17
8294;BME280;4185;41.506;24.938;2023-02-12T01:11:05;94251.25;;;-6.36;67.43
8294;BME280;4185;41.506;24.938;2023-02-12T01:13:33;94247.41;;;-6.42;67.52
8294;BME280;4185;41.506;24.938;2023-02-12T01:16:02;94261.66;;;-6.50;67.63
8294;BME280;4185;41.506;24.938;2023-02-12T01:18:32;94253.44;;;-6.42;68.21
8294;BME280;4185;41.506;24.938;2023-02-12T01:20:59;94248.63;;;-6.36;67.74
8294;BME280;4185;41.506;24.938;2023-02-12T01:23:25;94250.53;;;-6.33;67.59
8294;BME280;4185;41.506;24.938;2023-02-12T01:25:52;94238.09;;;-6.29;67.57
8294;BME280;4185;41.506;24.938;2023-02-12T01:28:19;94235.88;;;-6.27;67.79
8294;BME280;4185;41.506;24.938;2023-02-12T01:30:46;94233.31;;;-6.20;67.27
8294;BME280;4185;41.506;24.938;2023-02-12T01:33:12;94224.97;;;-6.22;67.41
8294;BME280;4185;41.506;24.938;2023-02-12T01:35:40;94218.03;;;-6.34;67.69
8294;BME280;4185;41.506;24.938;2023-02-12T01:38:07;94235.72;;;-6.41;68.61
8294;BME280;4185;41.506;24.938;2023-02-12T01:40:34;94227.53;;;-6.33;67.76
8294;BME280;4185;41.506;24.938;2023-02-12T01:43:01;94227.19;;;-6.28;67.75
8294;BME280;4185;41.506;24.938;2023-02-12T01:45:44;94221.53;;;-6.26;67.87
8294;BME280;4185;41.506;24.938;2023-02-12T01:48:12;94219.63;;;-6.26;68.76
8294;BME280;4185;41.506;24.938;2023-02-12T01:50:42;94217.28;;;-6.34;68.25
8294;BME280;4185;41.506;24.938;2023-02-12T01:53:09;94218.09;;;-6.30;68.03
8294;BME280;4185;41.506;24.938;2023-02-12T01:55:38;94212.81;;;-6.30;67.88
8294;BME280;4185;41.506;24.938;2023-02-12T01:58:06;94205.59;;;-6.33;67.75
8294;BME280;4185;41.506;24.938;2023-02-12T02:00:34;94208.25;;;-6.33;68.25
8294;BME280;4185;41.506;24.938;2023-02-12T02:03:01;94196.41;;;-6.46;69.05
8294;BME280;4185;41.506;24.938;2023-02-12T02:05:34;94199.84;;;-6.42;69.95
8294;BME280;4185;41.506;24.938;2023-02-12T02:08:05;94185.94;;;-6.36;68.96
8294;BME280;4185;41.506;24.938;2023-02-12T02:10:32;94191.19;;;-6.39;69.22
8294;BME280;4185;41.506;24.938;2023-02-12T02:12:59;94187.88;;;-6.33;68.70
8294;BME280;4185;41.506;24.938;2023-02-12T02:15:46;94188.63;;;-6.32;69.09
8294;BME280;4185;41.506;24.938;2023-02-12T02:18:18;94189.50;;;-6.21;68.54
8294;BME280;4185;41.506;24.938;2023-02-12T02:24:17;94183.41;;;-6.25;68.17
8294;BME280;4185;41.506;24.938;2023-02-12T02:27:07;94186.53;;;-6.16;68.13
8294;BME280;4185;41.506;24.938;2023-02-12T02:30:08;94184.31;;;-6.10;67.83
8294;BME280;4185;41.506;24.938;2023-02-12T02:32:41;94176.06;;;-6.05;67.68
8294;BME280;4185;41.506;24.938;2023-02-12T02:35:13;94185.81;;;-6.09;67.84
8294;BME280;4185;41.506;24.938;2023-02-12T02:37:44;94185.78;;;-6.13;67.41
8294;BME280;4185;41.506;24.938;2023-02-12T02:40:17;94182.75;;;-6.15;68.25
8294;BME280;4185;41.506;24.938;2023-02-12T02:42:48;94188.03;;;-6.15;68.24
8294;BME280;4185;41.506;24.938;2023-02-12T02:45:24;94185.38;;;-6.15;68.46
8294;BME280;4185;41.506;24.938;2023-02-12T02:47:58;94186.53;;;-6.16;68.64
8294;BME280;4185;41.506;24.938;2023-02-12T02:50:27;94184.53;;;-6.26;68.73
8294;BME280;4185;41.506;24.938;2023-02-12T02:52:58;94183.41;;;-6.25;69.20
8294;BME280;4185;41.506;24.938;2023-02-12T02:55:36;94181.84;;;-6.30;69.27
8294;BME280;4185;41.506;24.938;2023-02-12T02:58:08;94190.84;;;-6.34;69.18
8294;BME280;4185;41.506;24.938;2023-02-12T03:00:41;94187.44;;;-6.38;69.36
8294;BME280;4185;41.506;24.938;2023-02-12T03:03:13;94195.31;;;-6.42;69.52
8294;BME280;4185;41.506;24.938;2023-02-12T03:05:46;94190.75;;;-6.45;69.26
8294;BME280;4185;41.506;24.938;2023-02-12T03:08:18;94193.00;;;-6.47;69.18
8294;BME280;4185;41.506;24.938;2023-02-12T03:10:51;94204.97;;;-6.56;70.24
8294;BME280;4185;41.506;24.938;2023-02-12T03:13:22;94190.63;;;-6.55;70.11
8294;BME280;4185;41.506;24.938;2023-02-12T03:15:55;94205.28;;;-6.61;70.15
8294;BME280;4185;41.506;24.938;2023-02-12T03:18:27;94192.38;;;-6.66;69.77
8294;BME280;4185;41.506;24.938;2023-02-12T03:20:59;94186.72;;;-6.68;69.93
8294;BME280;4185;41.506;24.938;2023-02-12T03:23:29;94195.00;;;-6.70;70.19
8294;BME280;4185;41.506;24.938;2023-02-12T03:26:02;94189.28;;;-6.75;70.94
8294;BME280;4185;41.506;24.938;2023-02-12T03:28:32;94192.75;;;-6.68;70.71
8294;BME280;4185;41.506;24.938;2023-02-12T03:31:06;94180.75;;;-6.62;70.55
8294;BME280;4185;41.506;24.938;2023-02-12T03:33:41;94176.63;;;-6.59;70.55
8294;BME280;4185;41.506;24.938;2023-02-12T03:36:19;94177.75;;;-6.60;70.98
8294;BME280;4185;41.506;24.938;2023-02-12T03:38:50;94171.69;;;-6.61;70.58
8294;BME280;4185;41.506;24.938;2023-02-12T03:41:21;94170.91;;;-6.65;70.65
8294;BME280;4185;41.506;24.938;2023-02-12T03:43:53;94174.28;;;-6.64;70.61
8294;BME280;4185;41.506;24.938;2023-02-12T03:46:26;94170.50;;;-6.67;71.13
8294;BME280;4185;41.506;24.938;2023-02-12T03:49:01;94176.22;;;-6.61;71.08
8294;BME280;4185;41.506;24.938;2023-02-12T03:51:34;94168.59;;;-6.66;71.07
8294;BME280;4185;41.506;24.938;2023-02-12T03:54:03;94169.00;;;-6.64;70.92
8294;BME280;4185;41.506;24.938;2023-02-12T03:56:36;94165.03;;;-6.51;70.88
8294;BME280;4185;41.506;24.938;2023-02-12T03:59:04;94166.56;;;-6.47;70.78
8294;BME280;4185;41.506;24.938;2023-02-12T04:01:34;94164.41;;;-6.38;70.55
8294;BME280;4185;41.506;24.938;2023-02-12T04:04:03;94169.72;;;-6.34;70.02
8294;BME280;4185;41.506;24.938;2023-02-12T04:06:30;94165.56;;;-6.35;70.04
8294;BME280;4185;41.506;24.938;2023-02-12T04:09:02;94166.69;;;-6.36;69.88
8294;BME280;4185;41.506;24.938;2023-02-12T04:11:35;94159.94;;;-6.30;69.99
8294;BME280;4185;41.506;24.938;2023-02-12T04:14:19;94170.03;;;-6.39;70.67
8294;BME280;4185;41.506;24.938;2023-02-12T04:16:53;94166.72;;;-6.33;69.94
8294;BME280;4185;41.506;24.938;2023-02-12T04:19:29;94168.94;;;-6.38;70.77
8294;BME280;4185;41.506;24.938;2023-02-12T04:22:14;94174.13;;;-6.45;71.24
8294;BME280;4185;41.506;24.938;2023-02-12T04:24:49;94177.19;;;-6.43;71.22
8294;BME280;4185;41.506;24.938;2023-02-12T04:27:25;94174.25;;;-6.35;71.38
8294;BME280;4185;41.506;24.938;2023-02-12T04:30:02;94180.34;;;-6.27;70.96
8294;BME280;4185;41.506;24.938;2023-02-12T04:32:39;94171.34;;;-6.22;70.96
8294;BME280;4185;41.506;24.938;2023-02-12T04:35:11;94166.41;;;-6.28;70.34
8294;BME280;4185;41.506;24.938;2023-02-12T04:37:42;94181.00;;;-6.37;70.51
8294;BME280;4185;41.506;24.938;2023-02-12T04:40:12;94177.97;;;-6.39;70.85
8294;BME280;4185;41.506;24.938;2023-02-12T04:42:41;94185.50;;;-6.41;71.39
8294;BME280;4185;41.506;24.938;2023-02-12T04:45:11;94183.31;;;-6.32;71.49
8294;BME280;4185;41.506;24.938;2023-02-12T04:47:39;94191.66;;;-6.30;70.93
8294;BME280;4185;41.506;24.938;2023-02-12T04:50:07;94188.69;;;-6.25;70.30
8294;BME280;4185;41.506;24.938;2023-02-12T04:52:34;94198.50;;;-6.26;71.05
8294;BME280;4185;41.506;24.938;2023-02-12T04:55:00;94190.97;;;-6.23;71.17
8294;BME280;4185;41.506;24.938;2023-02-12T04:57:27;94198.94;;;-6.20;71.11
8294;BME280;4185;41.506;24.938;2023-02-12T04:59:54;94204.66;;;-6.14;71.28
8294;BME280;4185;41.506;24.938;2023-02-12T05:02:21;94197.88;;;-6.12;71.52
8294;BME280;4185;41.506;24.938;2023-02-12T05:04:49;94199.03;;;-6.09;71.39
8294;BME280;4185;41.506;24.938;2023-02-12T05:07:16;94199.41;;;-6.11;70.75
8294;BME280;4185;41.506;24.938;2023-02-12T05:09:43;94206.13;;;-6.17;70.74
8294;BME280;4185;41.506;24.938;2023-02-12T05:12:09;94208.41;;;-6.15;70.99
8294;BME280;4185;41.506;24.938;2023-02-12T05:14:36;94214.53;;;-6.08;70.91
8294;BME280;4185;41.506;24.938;2023-02-12T05:17:03;94211.16;;;-6.05;70.62
8294;BME280;4185;41.506;24.938;2023-02-12T05:19:30;94202.41;;;-6.12;70.37
8294;BME280;4185;41.506;24.938;2023-02-12T05:21:58;94218.38;;;-6.02;70.80
8294;BME280;4185;41.506;24.938;2023-02-12T05:24:25;94224.06;;;-6.00;70.73
8294;BME280;4185;41.506;24.938;2023-02-12T05:26:52;94227.50;;;-5.96;70.62
8294;BME280;4185;41.506;24.938;2023-02-12T05:29:19;94226.31;;;-6.02;70.11
8294;BME280;4185;41.506;24.938;2023-02-12T05:31:45;94228.94;;;-6.02;70.67
8294;BME280;4185;41.506;24.938;2023-02-12T05:34:12;94228.94;;;-6.05;71.08
8294;BME280;4185;41.506;24.938;2023-02-12T05:36:39;94233.38;;;-6.13;71.18
8294;BME280;4185;41.506;24.938;2023-02-12T05:39:08;94237.91;;;-6.13;71.53
8294;BME280;4185;41.506;24.938;2023-02-12T05:41:35;94237.19;;;-6.10;71.05
8294;BME280;4185;41.506;24.938;2023-02-12T05:44:03;94247.13;;;-6.00;71.16
8294;BME280;4185;41.506;24.938;2023-02-12T05:46:30;94238.09;;;-5.96;71.97
8294;BME280;4185;41.506;24.938;2023-02-12T05:48:57;94247.94;;;-5.93;72.04
8294;BME280;4185;41.506;24.938;2023-02-12T05:51:26;94244.19;;;-5.92;71.35
8294;BME280;4185;41.506;24.938;2023-02-12T05:53:56;94247.59;;;-5.88;71.26
8294;BME280;4185;41.506;24.938;2023-02-12T05:56:28;94248.41;;;-5.84;71.10
8294;BME280;4185;41.506;24.938;2023-02-12T05:58:56;94258.22;;;-5.81;70.90
8294;BME280;4185;41.506;24.938;2023-02-12T06:01:26;94257.91;;;-5.76;71.03
8294;BME280;4185;41.506;24.938;2023-02-12T06:03:53;94237.53;;;-5.72;71.47
8294;BME280;4185;41.506;24.938;2023-02-12T06:06:20;94239.84;;;-5.67;71.72
8294;BME280;4185;41.506;24.938;2023-02-12T06:08:48;94254.19;;;-5.68;70.39
8294;BME280;4185;41.506;24.938;2023-02-12T06:11:15;94264.03;;;-5.68;70.48
8294;BME280;4185;41.506;24.938;2023-02-12T06:13:44;94259.59;;;-5.54;70.83
8294;BME280;4185;41.506;24.938;2023-02-12T06:16:16;94240.78;;;-5.45;70.70
8294;BME280;4185;41.506;24.938;2023-02-12T06:18:43;94237.03;;;-5.41;70.33
8294;BME280;4185;41.506;24.938;2023-02-12T06:21:10;94235.56;;;-5.35;69.27
8294;BME280;4185;41.506;24.938;2023-02-12T06:23:36;94245.41;;;-5.35;69.34
8294;BME280;4185;41.506;24.938;2023-02-12T06:26:04;94245.81;;;-5.30;69.65
8294;BME280;4185;41.506;24.938;2023-02-12T06:28:30;94250.78;;;-5.25;70.00
8294;BME280;4185;41.506;24.938;2023-02-12T06:30:59;94238.69;;;-5.19;69.62
8294;BME280;4185;41.506;24.938;2023-02-12T06:33:26;94248.59;;;-5.09;69.29
8294;BME280;4185;41.506;24.938;2023-02-12T06:35:52;94245.63;;;-5.00;68.91
8294;BME280;4185;41.506;24.938;2023-02-12T06:38:19;94245.72;;;-4.89;68.87
8294;BME280;4185;41.506;24.938;2023-02-12T06:40:46;94251.44;;;-4.80;68.80
8294;BME280;4185;41.506;24.938;2023-02-12T06:43:13;94265.47;;;-4.76;68.74
8294;BME280;4185;41.506;24.938;2023-02-12T06:45:42;94254.88;;;-4.76;68.54
8294;BME280;4185;41.506;24.938;2023-02-12T06:48:11;94265.50;;;-4.69;68.40
8294;BME280;4185;41.506;24.938;2023-02-12T06:50:38;94251.13;;;-4.65;68.39
8294;BME280;4185;41.506;24.938;2023-02-12T06:53:04;94249.28;;;-4.57;67.59
8294;BME280;4185;41.506;24.938;2023-02-12T06:55:31;94253.50;;;-4.49;66.84
8294;BME280;4185;41.506;24.938;2023-02-12T06:57:58;94264.13;;;-4.42;67.39
8294;BME280;4185;41.506;24.938;2023-02-12T07:00:25;94266.47;;;-4.30;67.26
8294;BME280;4185;41.506;24.938;2023-02-12T07:02:52;94273.31;;;-4.22;67.16
8294;BME280;4185;41.506;24.938;2023-02-12T07:05:22;94260.44;;;-4.20;66.87
8294;BME280;4185;41.506;24.938;2023-02-12T07:07:49;94277.91;;;-4.05;66.50
8294;BME280;4185;41.506;24.938;2023-02-12T07:10:16;94277.56;;;-4.00;65.35
8294;BME280;4185;41.506;24.938;2023-02-12T07:12:43;94272.63;;;-4.05;65.57
8294;BME280;4185;41.506;24.938;2023-02-12T07:15:10;94285.50;;;-4.04;64.92
8294;BME280;4185;41.506;24.938;2023-02-12T07:17:37;94281.34;;;-4.01;65.47
8294;BME280;4185;41.506;24.938;2023-02-12T07:20:05;94281.75;;;-3.92;65.51
8294;BME280;4185;41.506;24.938;2023-02-12T07:22:35;94275.72;;;-3.82;65.21
8294;BME280;4185;41.506;24.938;2023-02-12T07:25:02;94278.78;;;-3.73;64.09
8294;BME280;4185;41.506;24.938;2023-02-12T07:27:29;94272.72;;;-3.63;63.63
8294;BME280;4185;41.506;24.938;2023-02-12T07:29:56;94278.81;;;-3.52;63.22
8294;BME280;4185;41.506;24.938;2023-02-12T07:32:23;94272.00;;;-3.39;62.87
8294;BME280;4185;41.506;24.938;2023-02-12T07:34:50;94279.59;;;-3.27;61.30
8294;BME280;4185;41.506;24.938;2023-02-12T07:37:16;94279.97;;;-3.14;61.14
8294;BME280;4185;41.506;24.938;2023-02-12T07:39:48;94281.53;;;-3.06;60.79
8294;BME280;4185;41.506;24.938;2023-02-12T07:42:15;94282.25;;;-2.99;60.46
8294;BME280;4185;41.506;24.938;2023-02-12T07:44:42;94281.09;;;-2.87;60.65
8294;BME280;4185;41.506;24.938;2023-02-12T07:47:08;94273.91;;;-2.80;61.06
8294;BME280;4185;41.506;24.938;2023-02-12T07:49:35;94263.63;;;-2.71;60.50
8294;BME280;4185;41.506;24.938;2023-02-12T07:52:02;94268.91;;;-2.64;59.74
8294;BME280;4185;41.506;24.938;2023-02-12T07:54:29;94265.13;;;-2.63;60.14
8294;BME280;4185;41.506;24.938;2023-02-12T07:56:57;94259.03;;;-2.53;59.28
8294;BME280;4185;41.506;24.938;2023-02-12T07:59:25;94269.66;;;-2.42;57.76
8294;BME280;4185;41.506;24.938;2023-02-12T08:01:53;94262.78;;;-2.32;56.77
8294;BME280;4185;41.506;24.938;2023-02-12T08:04:22;94258.50;;;-2.09;55.89
8294;BME280;4185;41.506;24.938;2023-02-12T08:06:51;94252.66;;;-1.79;55.52
8294;BME280;4185;41.506;24.938;2023-02-12T08:09:20;94254.81;;;-1.57;55.33
8294;BME280;4185;41.506;24.938;2023-02-12T08:11:48;94251.25;;;-1.33;54.86
8294;BME280;4185;41.506;24.938;2023-02-12T08:14:18;94242.34;;;-1.15;54.08
8294;BME280;4185;41.506;24.938;2023-02-12T08:16:46;94235.34;;;-0.99;53.51
8294;BME280;4185;41.506;24.938;2023-02-12T08:19:14;94240.16;;;-0.80;52.43
8294;BME280;4185;41.506;24.938;2023-02-12T08:21:41;94238.50;;;-0.67;52.32
8294;BME280;4185;41.506;24.938;2023-02-12T08:24:08;94233.38;;;-0.51;51.13
8294;BME280;4185;41.506;24.938;2023-02-12T08:26:37;94227.09;;;-0.34;50.62
8294;BME280;4185;41.506;24.938;2023-02-12T08:29:05;94235.22;;;-0.11;50.38
8294;BME280;4185;41.506;24.938;2023-02-12T08:31:36;94235.84;;;0.00;49.31
8294;BME280;4185;41.506;24.938;2023-02-12T08:34:03;94237.22;;;0.12;48.89
8294;BME280;4185;41.506;24.938;2023-02-12T08:36:35;94238.22;;;0.25;49.02
8294;BME280;4185;41.506;24.938;2023-02-12T08:39:03;94231.66;;;0.30;49.35
8294;BME280;4185;41.506;24.938;2023-02-12T08:41:30;94224.78;;;0.32;49.10
8294;BME280;4185;41.506;24.938;2023-02-12T08:43:59;94220.88;;;0.37;48.33
8294;BME280;4185;41.506;24.938;2023-02-12T08:46:27;94225.78;;;0.42;48.49
8294;BME280;4185;41.506;24.938;2023-02-12T08:48:57;94236.38;;;0.49;48.23
8294;BME280;4185;41.506;24.938;2023-02-12T08:51:25;94235.50;;;0.55;47.99
8294;BME280;4185;41.506;24.938;2023-02-12T08:53:55;94232.75;;;0.62;47.47
8294;BME280;4185;41.506;24.938;2023-02-12T08:56:23;94224.53;;;0.73;47.58
8294;BME280;4185;41.506;24.938;2023-02-12T08:58:50;94236.31;;;0.79;47.40
8294;BME280;4185;41.506;24.938;2023-02-12T09:01:19;94230.84;;;0.86;46.69
8294;BME280;4185;41.506;24.938;2023-02-12T09:03:46;94243.75;;;0.91;47.35
8294;BME280;4185;41.506;24.938;2023-02-12T09:06:16;94237.19;;;0.95;47.09
8294;BME280;4185;41.506;24.938;2023-02-12T09:08:44;94248.59;;;0.99;47.33
8294;BME280;4185;41.506;24.938;2023-02-12T09:11:12;94243.53;;;1.05;47.99
8294;BME280;4185;41.506;24.938;2023-02-12T09:13:42;94240.38;;;1.10;48.19
8294;BME280;4185;41.506;24.938;2023-02-12T09:16:09;94247.63;;;1.13;48.04
8294;BME280;4185;41.506;24.938;2023-02-12T09:18:37;94236.50;;;1.14;45.64
8294;BME280;4185;41.506;24.938;2023-02-12T09:21:06;94240.97;;;1.21;46.01
8294;BME280;4185;41.506;24.938;2023-02-12T09:23:35;94236.19;;;1.32;45.73
8294;BME280;4185;41.506;24.938;2023-02-12T09:26:03;94236.78;;;1.43;45.53
8294;BME280;4185;41.506;24.938;2023-02-12T09:28:30;94234.19;;;1.59;45.26
8294;BME280;4185;41.506;24.938;2023-02-12T09:30:57;94242.31;;;1.75;44.27
8294;BME280;4185;41.506;24.938;2023-02-12T09:33:24;94252.84;;;1.86;44.04
8294;BME280;4185;41.506;24.938;2023-02-12T09:35:50;94249.44;;;2.01;43.24
8294;BME280;4185;41.506;24.938;2023-02-12T09:38:17;94257.38;;;2.28;43.47
8294;BME280;4185;41.506;24.938;2023-02-12T09:40:51;94256.75;;;2.56;43.12
8294;BME280;4185;41.506;24.938;2023-02-12T09:43:30;94253.28;;;2.75;41.83
8294;BME280;4185;41.506;24.938;2023-02-12T09:46:03;94255.25;;;2.91;41.57
8294;BME280;4185;41.506;24.938;2023-02-12T09:48:47;94261.63;;;3.13;41.37
8294;BME280;4185;41.506;24.938;2023-02-12T09:51:18;94264.13;;;3.36;40.83
8294;BME280;4185;41.506;24.938;2023-02-12T09:53:47;94254.72;;;3.60;40.72
8294;BME280;4185;41.506;24.938;2023-02-12T09:56:18;94261.75;;;3.70;40.77
8294;BME280;4185;41.506;24.938;2023-02-12T09:58:50;94262.56;;;3.83;41.84
8294;BME280;4185;41.506;24.938;2023-02-12T10:01:19;94261.16;;;4.07;39.86
8294;BME280;4185;41.506;24.938;2023-02-12T10:03:48;94267.13;;;4.27;39.29
8294;BME280;4185;41.506;24.938;2023-02-12T10:06:18;94251.59;;;4.60;38.70
8294;BME280;4185;41.506;24.938;2023-02-12T10:09:09;94257.31;;;4.99;38.22
8294;BME280;4185;41.506;24.938;2023-02-12T10:12:02;94250.75;;;5.26;37.35
8294;BME280;4185;41.506;24.938;2023-02-12T10:14:59;94256.84;;;5.39;36.45
8294;BME280;4185;41.506;24.938;2023-02-12T10:17:34;94252.72;;;5.47;36.65
8294;BME280;4185;41.506;24.938;2023-02-12T10:23:08;94254.53;;;5.16;36.66
8294;BME280;4185;41.506;24.938;2023-02-12T10:25:43;94261.19;;;4.98;36.40
8294;BME280;4185;41.506;24.938;2023-02-12T10:28:16;94263.88;;;4.86;36.41
8294;BME280;4185;41.506;24.938;2023-02-12T10:30:48;94266.66;;;4.82;37.49
8294;BME280;4185;41.506;24.938;2023-02-12T10:33:19;94266.66;;;4.82;38.11
8294;BME280;4185;41.506;24.938;2023-02-12T10:35:54;94266.91;;;4.88;38.51
8294;BME280;4185;41.506;24.938;2023-02-12T10:38:26;94265.81;;;5.36;36.71
8294;BME280;4185;41.506;24.938;2023-02-12T10:40:55;94259.44;;;5.89;35.96
8294;BME280;4185;41.506;24.938;2023-02-12T10:43:27;94257.81;;;6.26;35.11
8294;BME280;4185;41.506;24.938;2023-02-12T10:45:54;94253.94;;;6.57;35.13
8294;BME280;4185;41.506;24.938;2023-02-12T10:48:23;94262.50;;;6.86;34.61
8294;BME280;4185;41.506;24.938;2023-02-12T10:50:58;94259.84;;;6.95;34.35
8294;BME280;4185;41.506;24.938;2023-02-12T10:53:32;94261.44;;;7.14;33.78
8294;BME280;4185;41.506;24.938;2023-02-12T10:56:15;94256.28;;;7.47;34.28
8294;BME280;4185;41.506;24.938;2023-02-12T10:58:53;94240.56;;;7.73;34.11
8294;BME280;4185;41.506;24.938;2023-02-12T11:01:23;94247.78;;;8.03;32.60
8294;BME280;4185;41.506;24.938;2023-02-12T11:03:51;94248.69;;;8.00;32.25
8294;BME280;4185;41.506;24.938;2023-02-12T11:06:20;94255.00;;;8.06;32.02
8294;BME280;4185;41.506;24.938;2023-02-12T11:08:48;94254.84;;;8.09;31.33
8294;BME280;4185;41.506;24.938;2023-02-12T11:11:19;94249.78;;;8.29;31.10
8294;BME280;4185;41.506;24.938;2023-02-12T11:13:55;94251.06;;;8.70;32.69
8294;BME280;4185;41.506;24.938;2023-02-12T11:16:28;94254.34;;;8.83;31.05
8294;BME280;4185;41.506;24.938;2023-02-12T11:19:00;94255.19;;;8.29;33.02
8294;BME280;4185;41.506;24.938;2023-02-12T11:21:29;94266.09;;;7.81;32.59
8294;BME280;4185;41.506;24.938;2023-02-12T11:23:56;94261.81;;;7.43;34.14
8294;BME280;4185;41.506;24.938;2023-02-12T11:26:43;94266.91;;;7.02;34.39
8294;BME280;4185;41.506;24.938;2023-02-12T11:29:19;94260.66;;;6.74;36.35
8294;BME280;4185;41.506;24.938;2023-02-12T11:31:59;94271.13;;;6.72;36.37
8294;BME280;4185;41.506;24.938;2023-02-12T11:34:27;94256.41;;;6.64;36.34
8294;BME280;4185;41.506;24.938;2023-02-12T11:36:55;94267.19;;;6.64;36.35
8294;BME280;4185;41.506;24.938;2023-02-12T11:39:27;94269.19;;;6.51;37.17
8294;BME280;4185;41.506;24.938;2023-02-12T11:41:59;94264.31;;;6.59;37.45
8294;BME280;4185;41.506;24.938;2023-02-12T11:44:29;94268.38;;;6.63;36.86
8294;BME280;4185;41.506;24.938;2023-02-12T11:47:00;94260.72;;;6.62;36.61
8294;BME280;4185;41.506;24.938;2023-02-12T11:49:37;94268.94;;;6.58;36.69
8294;BME280;4185;41.506;24.938;2023-02-12T11:52:05;94274.34;;;6.58;36.44
8294;BME280;4185;41.506;24.938;2023-02-12T11:54:40;94269.50;;;6.53;36.85
8294;BME280;4185;41.506;24.938;2023-02-12T11:57:36;94274.66;;;6.60;38.19
8294;BME280;4185;41.506;24.938;2023-02-12T12:00:12;94275.72;;;6.63;37.68
8294;BME280;4185;41.506;24.938;2023-02-12T12:02:44;94275.47;;;6.48;37.85
8294;BME280;4185;41.506;24.938;2023-02-12T12:05:19;94282.06;;;6.47;37.68
8294;BME280;4185;41.506;24.938;2023-02-12T12:07:52;94270.19;;;6.45;38.63
8294;BME280;4185;41.506;24.938;2023-02-12T12:10:28;94277.94;;;6.55;38.00
8294;BME280;4185;41.506;24.938;2023-02-12T12:13:01;94274.84;;;6.66;37.52
8294;BME280;4185;41.506;24.938;2023-02-12T12:15:33;94278.09;;;6.82;37.12
8294;BME280;4185;41.506;24.938;2023-02-12T12:18:23;94274.28;;;7.01;36.79
8294;BME280;4185;41.506;24.938;2023-02-12T12:21:12;94275.84;;;7.20;37.47
8294;BME280;4185;41.506;24.938;2023-02-12T12:23:44;94270.34;;;7.33;37.20
8294;BME280;4185;41.506;24.938;2023-02-12T12:26:22;94273.81;;;7.33;36.18
8294;BME280;4185;41.506;24.938;2023-02-12T12:28:52;94255.81;;;7.39;35.53
8294;BME280;4185;41.506;24.938;2023-02-12T12:31:26;94266.09;;;7.72;35.92
8294;BME280;4185;41.506;24.938;2023-02-12T12:33:59;94270.88;;;7.59;36.30
8294;BME280;4185;41.506;24.938;2023-02-12T12:37:00;94267.38;;;7.40;36.68
8294;BME280;4185;41.506;24.938;2023-02-12T12:39:34;94281.03;;;7.36;37.36
8294;BME280;4185;41.506;24.938;2023-02-12T12:42:17;94277.16;;;7.47;37.38
8294;BME280;4185;41.506;24.938;2023-02-12T12:45:00;94276.38;;;7.46;37.12
8294;BME280;4185;41.506;24.938;2023-02-12T12:47:41;94273.22;;;7.47;37.70
8294;BME280;4185;41.506;24.938;2023-02-12T12:50:31;94278.97;;;7.59;37.49
8294;BME280;4185;41.506;24.938;2023-02-12T12:53:14;94288.31;;;7.58;37.78
8294;BME280;4185;41.506;24.938;2023-02-12T12:56:04;94291.72;;;7.49;37.56
8294;BME280;4185;41.506;24.938;2023-02-12T12:58:46;94294.44;;;7.58;38.33
8294;BME280;4185;41.506;24.938;2023-02-12T13:01:49;94305.47;;;7.82;38.82
8294;BME280;4185;41.506;24.938;2023-02-12T13:04:49;94304.94;;;8.23;38.04
8294;BME280;4185;41.506;24.938;2023-02-12T13:07:35;94310.38;;;8.32;37.82
8294;BME280;4185;41.506;24.938;2023-02-12T13:10:16;94312.72;;;8.21;38.15
8294;BME280;4185;41.506;24.938;2023-02-12T13:13:05;94314.84;;;8.08;38.17
8294;BME280;4185;41.506;24.938;2023-02-12T13:15:38;94312.41;;;7.83;38.76
8294;BME280;4185;41.506;24.938;2023-02-12T13:18:14;94320.78;;;7.76;39.38
8294;BME280;4185;41.506;24.938;2023-02-12T13:20:49;94322.91;;;7.81;39.03
8294;BME280;4185;41.506;24.938;2023-02-12T13:23:24;94326.78;;;7.80;38.71
8294;BME280;4185;41.506;24.938;2023-02-12T13:25:59;94334.13;;;8.28;38.19
8294;BME280;4185;41.506;24.938;2023-02-12T13:28:33;94324.78;;;8.20;38.97
8294;BME280;4185;41.506;24.938;2023-02-12T13:31:03;94328.09;;;8.24;39.19
8294;BME280;4185;41.506;24.938;2023-02-12T13:33:38;94324.66;;;8.32;38.87
8294;BME280;4185;41.506;24.938;2023-02-12T13:36:09;94338.91;;;8.15;38.92
8294;BME280;4185;41.506;24.938;2023-02-12T13:38:42;94338.56;;;7.95;39.33
8294;BME280;4185;41.506;24.938;2023-02-12T13:41:12;94348.59;;;7.76;38.76